CheckWX is a tool to help pilots better visualize weather data.  It is not intended as a substitute for an official pre-flight weather briefing.

20:17:37 UTC

KCHA TAF
Lovell Field Airport
Chattanooga, Tennessee, USA
KCHA 052332Z 0600/0624 VRB02KT P6SM SCT060 BKN250 FM061000 00000KT 4SM BR SCT250 FM061300 VRB02KT P6SM SCT250 FM061600 08006KT P6SM SCT050 BKN200 PROB30 0618/0624 4SM TSRA BR OVC035CB

Jul-6@
00:00 UTC

Jul-6 @ 00:00 UTC

Jul-6@
10:00 UTC

Jul-6 @ 10:00 UTC

TAF KCHA 052332Z 0600/0624 VRB02KT P6SM SCT060 BKN250

Expired

Wind
  • Variable at 2 KTS
Cloud Levels
  • Scattered at 6,000' AGL
  • Broken at 25,000' AGL

Jul-6@
10:00 UTC

Jul-6 @ 10:00 UTC

Jul-6@
13:00 UTC

Jul-6 @ 13:00 UTC

FM061000 00000KT 4SM BR SCT250

Expired

Conditions
Mist
Cloud Levels
  • Scattered at 25,000' AGL

Jul-6@
13:00 UTC

Jul-6 @ 13:00 UTC

Jul-6@
16:00 UTC

Jul-6 @ 16:00 UTC

FM061300 VRB02KT P6SM SCT250

Expired

Wind
  • Variable at 2 KTS
Cloud Levels
  • Scattered at 25,000' AGL

Jul-6@
16:00 UTC

Jul-6 @ 16:00 UTC

Jul-7@
00:00 UTC

Jul-7 @ 00:00 UTC

FM061600 08006KT P6SM SCT050 BKN200

From

From Standard forecast or significant change

Wind
  • 080° at 6 KTS
Cloud Levels
  • Scattered at 5,000' AGL
  • Broken at 20,000' AGL

Jul-6@
18:00 UTC

Jul-6 @ 18:00 UTC

Jul-7@
00:00 UTC

Jul-7 @ 00:00 UTC

PROB30 0618/0624 4SM TSRA BR OVC035CB

Probable - 30% Likelihood

Probable - 30% Likelihood during this time.

Conditions
Thunderstorm, Rain, Mist
Cloud Levels
  • Overcast at 3,500' AGL